sensor_id;sensor_type;location;lat;lon;timestamp;pressure;altitude;pressure_sealevel;temperature;humidity
50226;BME280;36113;50.742;6.432;2023-04-02T00:09:00;112741.81;;;-145.50;100.00
50226;BME280;36113;50.742;6.432;2023-04-02T00:11:34;112741.81;;;-145.50;100.00
50226;BME280;36113;50.742;6.432;2023-04-02T00:14:02;112741.81;;;-145.50;100.00
50226;BME280;36113;50.742;6.432;2023-04-02T00:16:29;112741.81;;;-145.50;100.00
50226;BME280;36113;50.742;6.432;2023-04-02T00:19:00;112741.81;;;-145.50;100.00
50226;BME280;36113;50.742;6.432;2023-04-02T00:21:30;112741.81;;;-145.50;100.00
50226;BME280;36113;50.742;6.432;2023-04-02T00:23:59;112741.81;;;-145.50;100.00
50226;BME280;36113;50.742;6.432;2023-04-02T00:26:37;112741.81;;;-145.50;100.00
50226;BME280;36113;50.742;6.432;2023-04-02T00:29:05;112741.81;;;-145.50;100.00
50226;BME280;36113;50.742;6.432;2023-04-02T00:31:32;112741.81;;;-145.50;100.00
50226;BME280;36113;50.742;6.432;2023-04-02T00:33:59;112741.81;;;-145.50;100.00
50226;BME280;36113;50.742;6.432;2023-04-02T00:36:29;112741.81;;;-145.50;100.00
50226;BME280;36113;50.742;6.432;2023-04-02T00:38:57;112741.81;;;-145.50;100.00
50226;BME280;36113;50.742;6.432;2023-04-02T00:41:25;112741.81;;;-145.50;100.00
50226;BME280;36113;50.742;6.432;2023-04-02T00:43:54;112741.81;;;-145.50;100.00
50226;BME280;36113;50.742;6.432;2023-04-02T00:46:26;112741.81;;;-145.50;100.00
50226;BME280;36113;50.742;6.432;2023-04-02T00:49:14;112741.81;;;-145.50;100.00
50226;BME280;36113;50.742;6.432;2023-04-02T00:51:48;112741.81;;;-145.50;100.00
50226;BME280;36113;50.742;6.432;2023-04-02T00:54:18;112741.81;;;-145.50;100.00
50226;BME280;36113;50.742;6.432;2023-04-02T00:56:47;112741.81;;;-145.50;100.00
50226;BME280;36113;50.742;6.432;2023-04-02T00:59:19;112741.81;;;-145.50;100.00
50226;BME280;36113;50.742;6.432;2023-04-02T01:01:55;112741.81;;;-145.50;100.00
50226;BME280;36113;50.742;6.432;2023-04-02T01:04:33;112741.81;;;-145.50;100.00
50226;BME280;36113;50.742;6.432;2023-04-02T01:07:04;112741.81;;;-145.50;100.00
50226;BME280;36113;50.742;6.432;2023-04-02T01:10:06;112741.81;;;-145.50;100.00
50226;BME280;36113;50.742;6.432;2023-04-02T01:15:18;112741.81;;;-145.50;100.00
50226;BME280;36113;50.742;6.432;2023-04-02T01:29:12;112741.81;;;-145.50;100.00
50226;BME280;36113;50.742;6.432;2023-04-02T01:31:40;112741.81;;;-145.50;100.00
50226;BME280;36113;50.742;6.432;2023-04-02T01:34:08;112741.81;;;-145.50;100.00
50226;BME280;36113;50.742;6.432;2023-04-02T01:42:03;112741.81;;;-145.50;100.00
50226;BME280;36113;50.742;6.432;2023-04-02T01:44:46;112741.81;;;-145.50;100.00
50226;BME280;36113;50.742;6.432;2023-04-02T01:47:15;112741.81;;;-145.50;100.00
50226;BME280;36113;50.742;6.432;2023-04-02T01:49:43;112741.81;;;-145.50;100.00
50226;BME280;36113;50.742;6.432;2023-04-02T01:52:16;112741.81;;;-145.50;100.00
50226;BME280;36113;50.742;6.432;2023-04-02T01:54:42;112741.81;;;-145.50;100.00
50226;BME280;36113;50.742;6.432;2023-04-02T01:57:08;112741.81;;;-145.50;100.00
50226;BME280;36113;50.742;6.432;2023-04-02T01:59:33;112741.81;;;-145.50;100.00
50226;BME280;36113;50.742;6.432;2023-04-02T02:02:05;112741.81;;;-145.50;100.00
50226;BME280;36113;50.742;6.432;2023-04-02T02:04:31;112741.81;;;-145.50;100.00
50226;BME280;36113;50.742;6.432;2023-04-02T02:06:58;112741.81;;;-145.50;100.00
50226;BME280;36113;50.742;6.432;2023-04-02T02:09:30;112741.81;;;-145.50;100.00
50226;BME280;36113;50.742;6.432;2023-04-02T02:11:58;112741.81;;;-145.50;100.00
50226;BME280;36113;50.742;6.432;2023-04-02T02:14:27;112741.81;;;-145.50;100.00
50226;BME280;36113;50.742;6.432;2023-04-02T02:16:55;112741.81;;;-145.50;100.00
50226;BME280;36113;50.742;6.432;2023-04-02T02:19:37;112741.81;;;-145.50;100.00
50226;BME280;36113;50.742;6.432;2023-04-02T02:22:16;112741.81;;;-145.50;100.00
50226;BME280;36113;50.742;6.432;2023-04-02T02:24:43;112741.81;;;-145.50;100.00
50226;BME280;36113;50.742;6.432;2023-04-02T02:27:41;112741.81;;;-145.50;100.00
50226;BME280;36113;50.742;6.432;2023-04-02T02:30:29;112741.81;;;-145.50;100.00
50226;BME280;36113;50.742;6.432;2023-04-02T02:33:01;112741.81;;;-145.50;100.00
50226;BME280;36113;50.742;6.432;2023-04-02T02:35:32;112741.81;;;-145.50;100.00
50226;BME280;36113;50.742;6.432;2023-04-02T02:40:52;112741.81;;;-145.50;100.00
50226;BME280;36113;50.742;6.432;2023-04-02T02:43:21;112741.81;;;-145.50;100.00
50226;BME280;36113;50.742;6.432;2023-04-02T02:45:47;112741.81;;;-145.50;100.00
50226;BME280;36113;50.742;6.432;2023-04-02T02:48:17;112741.81;;;-145.50;100.00
50226;BME280;36113;50.742;6.432;2023-04-02T02:50:43;112741.81;;;-145.50;100.00
50226;BME280;36113;50.742;6.432;2023-04-02T02:53:18;112741.81;;;-145.50;100.00
50226;BME280;36113;50.742;6.432;2023-04-02T02:55:46;112741.81;;;-145.50;100.00
50226;BME280;36113;50.742;6.432;2023-04-02T02:58:17;112741.81;;;-145.50;100.00
50226;BME280;36113;50.742;6.432;2023-04-02T03:00:44;112741.81;;;-145.50;100.00
50226;BME280;36113;50.742;6.432;2023-04-02T03:03:14;112741.81;;;-145.50;100.00
50226;BME280;36113;50.742;6.432;2023-04-02T03:05:40;112741.81;;;-145.50;100.00
50226;BME280;36113;50.742;6.432;2023-04-02T03:08:18;112741.81;;;-145.50;100.00
50226;BME280;36113;50.742;6.432;2023-04-02T03:11:04;112741.81;;;-145.50;100.00
50226;BME280;36113;50.742;6.432;2023-04-02T03:13:34;112741.81;;;-145.50;100.00
50226;BME280;36113;50.742;6.432;2023-04-02T03:16:14;112741.81;;;-145.50;100.00
50226;BME280;36113;50.742;6.432;2023-04-02T03:21:30;112741.81;;;-145.50;100.00
50226;BME280;36113;50.742;6.432;2023-04-02T03:24:03;112741.81;;;-145.50;100.00
50226;BME280;36113;50.742;6.432;2023-04-02T03:26:40;112741.81;;;-145.50;100.00
50226;BME280;36113;50.742;6.432;2023-04-02T03:29:28;112741.81;;;-145.50;100.00
50226;BME280;36113;50.742;6.432;2023-04-02T03:31:59;112741.81;;;-145.50;100.00
50226;BME280;36113;50.742;6.432;2023-04-02T03:34:30;112741.81;;;-145.50;100.00
50226;BME280;36113;50.742;6.432;2023-04-02T03:37:06;112741.81;;;-145.50;100.00
50226;BME280;36113;50.742;6.432;2023-04-02T03:39:37;112741.81;;;-145.50;100.00
50226;BME280;36113;50.742;6.432;2023-04-02T03:42:11;112741.81;;;-145.50;100.00
50226;BME280;36113;50.742;6.432;2023-04-02T03:44:45;112741.81;;;-145.50;100.00
50226;BME280;36113;50.742;6.432;2023-04-02T03:47:37;112741.81;;;-145.50;100.00
50226;BME280;36113;50.742;6.432;2023-04-02T03:50:15;112741.81;;;-145.50;100.00
50226;BME280;36113;50.742;6.432;2023-04-02T03:52:41;112741.81;;;-145.50;100.00
50226;BME280;36113;50.742;6.432;2023-04-02T03:55:13;112741.81;;;-145.50;100.00
50226;BME280;36113;50.742;6.432;2023-04-02T04:03:25;112741.81;;;-145.50;100.00
50226;BME280;36113;50.742;6.432;2023-04-02T04:05:59;112741.81;;;-145.50;100.00
50226;BME280;36113;50.742;6.432;2023-04-02T04:08:32;112741.81;;;-145.50;100.00
50226;BME280;36113;50.742;6.432;2023-04-02T04:11:09;112741.81;;;-145.50;100.00
50226;BME280;36113;50.742;6.432;2023-04-02T04:16:12;112741.81;;;-145.50;100.00
50226;BME280;36113;50.742;6.432;2023-04-02T04:18:47;112741.81;;;-145.50;100.00
50226;BME280;36113;50.742;6.432;2023-04-02T04:21:34;112741.81;;;-145.50;100.00
50226;BME280;36113;50.742;6.432;2023-04-02T04:24:05;112741.81;;;-145.50;100.00
50226;BME280;36113;50.742;6.432;2023-04-02T04:32:23;112741.81;;;-145.50;100.00
50226;BME280;36113;50.742;6.432;2023-04-02T04:35:15;112741.81;;;-145.50;100.00
50226;BME280;36113;50.742;6.432;2023-04-02T04:37:46;112741.81;;;-145.50;100.00
50226;BME280;36113;50.742;6.432;2023-04-02T04:40:21;112741.81;;;-145.50;100.00
50226;BME280;36113;50.742;6.432;2023-04-02T04:42:52;112741.81;;;-145.50;100.00
50226;BME280;36113;50.742;6.432;2023-04-02T04:45:40;112741.81;;;-145.50;100.00
50226;BME280;36113;50.742;6.432;2023-04-02T04:48:45;112741.81;;;-145.50;100.00
50226;BME280;36113;50.742;6.432;2023-04-02T04:51:22;112741.81;;;-145.50;100.00
50226;BME280;36113;50.742;6.432;2023-04-02T04:53:52;112741.81;;;-145.50;100.00
50226;BME280;36113;50.742;6.432;2023-04-02T04:56:23;112741.81;;;-145.50;100.00
50226;BME280;36113;50.742;6.432;2023-04-02T04:59:02;112741.81;;;-145.50;100.00
50226;BME280;36113;50.742;6.432;2023-04-02T05:01:52;112741.81;;;-145.50;100.00
50226;BME280;36113;50.742;6.432;2023-04-02T05:04:35;112741.81;;;-145.50;100.00
50226;BME280;36113;50.742;6.432;2023-04-02T05:07:17;112741.81;;;-145.50;100.00
50226;BME280;36113;50.742;6.432;2023-04-02T05:13:17;112741.81;;;-145.50;100.00
50226;BME280;36113;50.742;6.432;2023-04-02T05:15:38;112741.81;;;-145.50;100.00
50226;BME280;36113;50.742;6.432;2023-04-02T05:18:30;112741.81;;;-145.50;100.00
50226;BME280;36113;50.742;6.432;2023-04-02T05:21:16;112741.81;;;-145.50;100.00
50226;BME280;36113;50.742;6.432;2023-04-02T05:27:17;112741.81;;;-145.50;100.00
50226;BME280;36113;50.742;6.432;2023-04-02T05:29:52;112741.81;;;-145.50;100.00
50226;BME280;36113;50.742;6.432;2023-04-02T05:32:25;112741.81;;;-145.50;100.00
50226;BME280;36113;50.742;6.432;2023-04-02T05:34:54;112741.81;;;-145.50;100.00
50226;BME280;36113;50.742;6.432;2023-04-02T05:37:23;112741.81;;;-145.50;100.00
50226;BME280;36113;50.742;6.432;2023-04-02T05:39:58;112741.81;;;-145.50;100.00
50226;BME280;36113;50.742;6.432;2023-04-02T05:42:29;112741.81;;;-145.50;100.00
50226;BME280;36113;50.742;6.432;2023-04-02T05:45:18;112741.81;;;-145.50;100.00
50226;BME280;36113;50.742;6.432;2023-04-02T05:47:45;112741.81;;;-145.50;100.00
50226;BME280;36113;50.742;6.432;2023-04-02T05:52:55;112741.81;;;-145.50;100.00
50226;BME280;36113;50.742;6.432;2023-04-02T05:55:29;112741.81;;;-145.50;100.00
50226;BME280;36113;50.742;6.432;2023-04-02T05:58:06;112741.81;;;-145.50;100.00
50226;BME280;36113;50.742;6.432;2023-04-02T06:03:54;112741.81;;;-145.50;100.00
50226;BME280;36113;50.742;6.432;2023-04-02T06:05:57;112741.81;;;-145.50;100.00
50226;BME280;36113;50.742;6.432;2023-04-02T06:08:38;112741.81;;;-145.50;100.00
50226;BME280;36113;50.742;6.432;2023-04-02T06:11:09;112741.81;;;-145.50;100.00
50226;BME280;36113;50.742;6.432;2023-04-02T06:13:36;112741.81;;;-145.50;100.00
50226;BME280;36113;50.742;6.432;2023-04-02T06:16:02;112741.81;;;-145.50;100.00
50226;BME280;36113;50.742;6.432;2023-04-02T06:18:30;112741.81;;;-145.50;100.00
50226;BME280;36113;50.742;6.432;2023-04-02T06:20:57;112741.81;;;-145.50;100.00
50226;BME280;36113;50.742;6.432;2023-04-02T06:23:42;112741.81;;;-145.50;100.00
50226;BME280;36113;50.742;6.432;2023-04-02T06:26:32;112741.81;;;-145.50;100.00
50226;BME280;36113;50.742;6.432;2023-04-02T06:31:51;112741.81;;;-145.50;100.00
50226;BME280;36113;50.742;6.432;2023-04-02T06:34:20;112741.81;;;-145.50;100.00
50226;BME280;36113;50.742;6.432;2023-04-02T06:36:47;112741.81;;;-145.50;100.00
50226;BME280;36113;50.742;6.432;2023-04-02T06:39:18;112741.81;;;-145.50;100.00
50226;BME280;36113;50.742;6.432;2023-04-02T06:41:44;112741.81;;;-145.50;100.00
50226;BME280;36113;50.742;6.432;2023-04-02T06:44:18;112741.81;;;-145.50;100.00
50226;BME280;36113;50.742;6.432;2023-04-02T06:46:48;112741.81;;;-145.50;100.00
50226;BME280;36113;50.742;6.432;2023-04-02T06:49:31;112741.81;;;-145.50;100.00
50226;BME280;36113;50.742;6.432;2023-04-02T06:52:00;112741.81;;;-145.50;100.00
50226;BME280;36113;50.742;6.432;2023-04-02T06:54:25;112741.81;;;-145.50;100.00
50226;BME280;36113;50.742;6.432;2023-04-02T06:56:53;112741.81;;;-145.50;100.00
50226;BME280;36113;50.742;6.432;2023-04-02T06:59:20;112741.81;;;-145.50;100.00
50226;BME280;36113;50.742;6.432;2023-04-02T07:04:15;112741.81;;;-145.50;100.00
50226;BME280;36113;50.742;6.432;2023-04-02T07:06:42;112741.81;;;-145.50;100.00
50226;BME280;36113;50.742;6.432;2023-04-02T07:09:07;112741.81;;;-145.50;100.00
50226;BME280;36113;50.742;6.432;2023-04-02T07:11:33;112741.81;;;-145.50;100.00
50226;BME280;36113;50.742;6.432;2023-04-02T07:13:58;112741.81;;;-145.50;100.00
50226;BME280;36113;50.742;6.432;2023-04-02T07:16:25;112741.81;;;-145.50;100.00
50226;BME280;36113;50.742;6.432;2023-04-02T07:18:52;112741.81;;;-145.50;100.00
50226;BME280;36113;50.742;6.432;2023-04-02T07:21:17;112741.81;;;-145.50;100.00
50226;BME280;36113;50.742;6.432;2023-04-02T07:23:43;112741.81;;;-145.50;100.00
50226;BME280;36113;50.742;6.432;2023-04-02T07:26:13;112741.81;;;-145.50;100.00
50226;BME280;36113;50.742;6.432;2023-04-02T07:28:39;112741.81;;;-145.50;100.00
50226;BME280;36113;50.742;6.432;2023-04-02T07:31:14;112741.81;;;-145.50;100.00
50226;BME280;36113;50.742;6.432;2023-04-02T07:33:40;112741.81;;;-145.50;100.00
50226;BME280;36113;50.742;6.432;2023-04-02T07:36:06;112741.81;;;-145.50;100.00
50226;BME280;36113;50.742;6.432;2023-04-02T07:38:31;112741.81;;;-145.50;100.00
50226;BME280;36113;50.742;6.432;2023-04-02T07:40:56;112741.81;;;-145.50;100.00
50226;BME280;36113;50.742;6.432;2023-04-02T07:43:22;112741.81;;;-145.50;100.00
50226;BME280;36113;50.742;6.432;2023-04-02T07:45:49;112741.81;;;-145.50;100.00
50226;BME280;36113;50.742;6.432;2023-04-02T07:48:14;112741.81;;;-145.50;100.00
50226;BME280;36113;50.742;6.432;2023-04-02T07:50:39;112741.81;;;-145.50;100.00
50226;BME280;36113;50.742;6.432;2023-04-02T07:53:05;112741.81;;;-145.50;100.00
50226;BME280;36113;50.742;6.432;2023-04-02T07:55:31;112741.81;;;-145.50;100.00
50226;BME280;36113;50.742;6.432;2023-04-02T07:57:57;112741.81;;;-145.50;100.00
50226;BME280;36113;50.742;6.432;2023-04-02T08:00:25;112741.81;;;-145.50;100.00
50226;BME280;36113;50.742;6.432;2023-04-02T08:02:50;112741.81;;;-145.50;100.00
50226;BME280;36113;50.742;6.432;2023-04-02T08:05:16;112741.81;;;-145.50;100.00
50226;BME280;36113;50.742;6.432;2023-04-02T08:07:43;112741.81;;;-145.50;100.00
50226;BME280;36113;50.742;6.432;2023-04-02T08:10:10;112741.81;;;-145.50;100.00
50226;BME280;36113;50.742;6.432;2023-04-02T08:12:36;112741.81;;;-145.50;100.00
50226;BME280;36113;50.742;6.432;2023-04-02T08:15:03;112741.81;;;-145.50;100.00
50226;BME280;36113;50.742;6.432;2023-04-02T08:17:30;112741.81;;;-145.50;100.00
50226;BME280;36113;50.742;6.432;2023-04-02T08:19:56;112741.81;;;-145.50;100.00
50226;BME280;36113;50.742;6.432;2023-04-02T08:22:28;112741.81;;;-145.50;100.00
50226;BME280;36113;50.742;6.432;2023-04-02T08:24:54;112741.81;;;-145.50;100.00
50226;BME280;36113;50.742;6.432;2023-04-02T08:27:21;112741.81;;;-145.50;100.00
50226;BME280;36113;50.742;6.432;2023-04-02T08:29:46;112741.81;;;-145.50;100.00
50226;BME280;36113;50.742;6.432;2023-04-02T08:32:13;112741.81;;;-145.50;100.00
50226;BME280;36113;50.742;6.432;2023-04-02T08:34:42;112741.81;;;-145.50;100.00
50226;BME280;36113;50.742;6.432;2023-04-02T08:37:11;112741.81;;;-145.50;100.00
50226;BME280;36113;50.742;6.432;2023-04-02T08:39:37;112741.81;;;-145.50;100.00
50226;BME280;36113;50.742;6.432;2023-04-02T08:47:55;112741.81;;;-145.50;100.00
50226;BME280;36113;50.742;6.432;2023-04-02T08:50:27;112741.81;;;-145.50;100.00
50226;BME280;36113;50.742;6.432;2023-04-02T08:52:54;112741.81;;;-145.50;100.00
50226;BME280;36113;50.742;6.432;2023-04-02T08:55:33;112741.81;;;-145.50;100.00
50226;BME280;36113;50.742;6.432;2023-04-02T08:58:12;112741.81;;;-145.50;100.00
50226;BME280;36113;50.742;6.432;2023-04-02T09:00:43;112741.81;;;-145.50;100.00
50226;BME280;36113;50.742;6.432;2023-04-02T09:03:17;112741.81;;;-145.50;100.00
50226;BME280;36113;50.742;6.432;2023-04-02T09:05:44;112741.81;;;-145.50;100.00
50226;BME280;36113;50.742;6.432;2023-04-02T09:08:19;112741.81;;;-145.50;100.00
50226;BME280;36113;50.742;6.432;2023-04-02T09:10:52;112741.81;;;-145.50;100.00
50226;BME280;36113;50.742;6.432;2023-04-02T09:13:24;112741.81;;;-145.50;100.00
50226;BME280;36113;50.742;6.432;2023-04-02T09:16:08;112741.81;;;-145.50;100.00
50226;BME280;36113;50.742;6.432;2023-04-02T09:18:35;112741.81;;;-145.50;100.00
50226;BME280;36113;50.742;6.432;2023-04-02T09:23:52;112741.81;;;-145.50;100.00
50226;BME280;36113;50.742;6.432;2023-04-02T09:26:27;112741.81;;;-145.50;100.00
50226;BME280;36113;50.742;6.432;2023-04-02T09:31:46;112741.81;;;-145.50;100.00
50226;BME280;36113;50.742;6.432;2023-04-02T09:34:30;112741.81;;;-145.50;100.00
50226;BME280;36113;50.742;6.432;2023-04-02T09:37:15;112741.81;;;-145.50;100.00
50226;BME280;36113;50.742;6.432;2023-04-02T09:39:40;112741.81;;;-145.50;100.00
50226;BME280;36113;50.742;6.432;2023-04-02T09:42:07;112741.81;;;-145.50;100.00
50226;BME280;36113;50.742;6.432;2023-04-02T09:44:51;112741.81;;;-145.50;100.00
50226;BME280;36113;50.742;6.432;2023-04-02T09:47:25;112741.81;;;-145.50;100.00
50226;BME280;36113;50.742;6.432;2023-04-02T09:49:52;112741.81;;;-145.50;100.00
50226;BME280;36113;50.742;6.432;2023-04-02T09:52:29;112741.81;;;-145.50;100.00
50226;BME280;36113;50.742;6.432;2023-04-02T09:57:48;112741.81;;;-145.50;100.00
50226;BME280;36113;50.742;6.432;2023-04-02T10:02:46;112741.81;;;-145.50;100.00
50226;BME280;36113;50.742;6.432;2023-04-02T10:05:23;112741.81;;;-145.50;100.00
50226;BME280;36113;50.742;6.432;2023-04-02T10:07:50;112741.81;;;-145.50;100.00
50226;BME280;36113;50.742;6.432;2023-04-02T10:15:52;112741.81;;;-145.50;100.00
50226;BME280;36113;50.742;6.432;2023-04-02T10:18:32;112741.81;;;-145.50;100.00
50226;BME280;36113;50.742;6.432;2023-04-02T10:21:02;112741.81;;;-145.50;100.00
50226;BME280;36113;50.742;6.432;2023-04-02T10:23:29;112741.81;;;-145.50;100.00
50226;BME280;36113;50.742;6.432;2023-04-02T10:31:46;112741.81;;;-145.50;100.00
50226;BME280;36113;50.742;6.432;2023-04-02T10:34:22;112741.81;;;-145.50;100.00
50226;BME280;36113;50.742;6.432;2023-04-02T10:36:52;112741.81;;;-145.50;100.00
50226;BME280;36113;50.742;6.432;2023-04-02T10:39:24;112741.81;;;-145.50;100.00
50226;BME280;36113;50.742;6.432;2023-04-02T10:41:58;112741.81;;;-145.50;100.00
50226;BME280;36113;50.742;6.432;2023-04-02T10:52:25;112741.81;;;-145.50;100.00
50226;BME280;36113;50.742;6.432;2023-04-02T10:55:00;112741.81;;;-145.50;100.00
50226;BME280;36113;50.742;6.432;2023-04-02T10:57:37;112741.81;;;-145.50;100.00
50226;BME280;36113;50.742;6.432;2023-04-02T11:05:31;112741.81;;;-145.50;100.00
50226;BME280;36113;50.742;6.432;2023-04-02T11:08:05;112741.81;;;-145.50;100.00
50226;BME280;36113;50.742;6.432;2023-04-02T11:10:37;112741.81;;;-145.50;100.00
50226;BME280;36113;50.742;6.432;2023-04-02T11:13:12;112741.81;;;-145.50;100.00
50226;BME280;36113;50.742;6.432;2023-04-02T11:15:41;112741.81;;;-145.50;100.00
50226;BME280;36113;50.742;6.432;2023-04-02T11:18:22;112741.81;;;-145.50;100.00
50226;BME280;36113;50.742;6.432;2023-04-02T11:23:17;112741.81;;;-145.50;100.00
50226;BME280;36113;50.742;6.432;2023-04-02T11:25:43;112741.81;;;-145.50;100.00
50226;BME280;36113;50.742;6.432;2023-04-02T11:28:18;112741.81;;;-145.50;100.00
50226;BME280;36113;50.742;6.432;2023-04-02T11:30:50;112741.81;;;-145.50;100.00
50226;BME280;36113;50.742;6.432;2023-04-02T11:35:59;112741.81;;;-145.50;100.00
50226;BME280;36113;50.742;6.432;2023-04-02T11:40:52;112741.81;;;-145.50;100.00
50226;BME280;36113;50.742;6.432;2023-04-02T11:46:31;112741.81;;;-145.50;100.00
50226;BME280;36113;50.742;6.432;2023-04-02T11:49:39;112741.81;;;-145.50;100.00
50226;BME280;36113;50.742;6.432;2023-04-02T11:52:21;112741.81;;;-145.50;100.00
50226;BME280;36113;50.742;6.432;2023-04-02T11:54:55;112741.81;;;-145.50;100.00
50226;BME280;36113;50.742;6.432;2023-04-02T11:57:45;112741.81;;;-145.50;100.00
50226;BME280;36113;50.742;6.432;2023-04-02T12:00:28;112741.81;;;-145.50;100.00
50226;BME280;36113;50.742;6.432;2023-04-02T12:03:23;112741.81;;;-145.50;100.00
50226;BME280;36113;50.742;6.432;2023-04-02T12:06:01;112741.81;;;-145.50;100.00
50226;BME280;36113;50.742;6.432;2023-04-02T12:11:12;112741.81;;;-145.50;100.00
50226;BME280;36113;50.742;6.432;2023-04-02T12:16:04;112741.81;;;-145.50;100.00
50226;BME280;36113;50.742;6.432;2023-04-02T12:18:30;112741.81;;;-145.50;100.00
50226;BME280;36113;50.742;6.432;2023-04-02T12:20:57;112741.81;;;-145.50;100.00
50226;BME280;36113;50.742;6.432;2023-04-02T12:23:30;112741.81;;;-145.50;100.00
50226;BME280;36113;50.742;6.432;2023-04-02T12:26:00;112741.81;;;-145.50;100.00
50226;BME280;36113;50.742;6.432;2023-04-02T12:28:28;112741.81;;;-145.50;100.00
50226;BME280;36113;50.742;6.432;2023-04-02T12:31:03;112741.81;;;-145.50;100.00
50226;BME280;36113;50.742;6.432;2023-04-02T12:33:32;112741.81;;;-145.50;100.00
50226;BME280;36113;50.742;6.432;2023-04-02T12:36:02;112741.81;;;-145.50;100.00
50226;BME280;36113;50.742;6.432;2023-04-02T12:38:55;112741.81;;;-145.50;100.00
50226;BME280;36113;50.742;6.432;2023-04-02T12:41:32;112741.81;;;-145.50;100.00
50226;BME280;36113;50.742;6.432;2023-04-02T12:44:04;112741.81;;;-145.50;100.00
50226;BME280;36113;50.742;6.432;2023-04-02T12:46:32;112741.81;;;-145.50;100.00
50226;BME280;36113;50.742;6.432;2023-04-02T12:49:04;112741.81;;;-145.50;100.00
50226;BME280;36113;50.742;6.432;2023-04-02T12:51:31;112741.81;;;-145.50;100.00
50226;BME280;36113;50.742;6.432;2023-04-02T12:53:57;112741.81;;;-145.50;100.00
50226;BME280;36113;50.742;6.432;2023-04-02T12:56:22;112741.81;;;-145.50;100.00
50226;BME280;36113;50.742;6.432;2023-04-02T12:58:55;112741.81;;;-145.50;100.00
50226;BME280;36113;50.742;6.432;2023-04-02T13:01:26;112741.81;;;-145.50;100.00
50226;BME280;36113;50.742;6.432;2023-04-02T13:06:32;112741.81;;;-145.50;100.00
50226;BME280;36113;50.742;6.432;2023-04-02T13:09:04;112741.81;;;-145.50;100.00
50226;BME280;36113;50.742;6.432;2023-04-02T13:11:39;112741.81;;;-145.50;100.00
50226;BME280;36113;50.742;6.432;2023-04-02T13:14:16;112741.81;;;-145.50;100.00
50226;BME280;36113;50.742;6.432;2023-04-02T13:16:42;112741.81;;;-145.50;100.00
50226;BME280;36113;50.742;6.432;2023-04-02T13:19:29;112741.81;;;-145.50;100.00
50226;BME280;36113;50.742;6.432;2023-04-02T13:21:56;112741.81;;;-145.50;100.00
50226;BME280;36113;50.742;6.432;2023-04-02T13:24:23;112741.81;;;-145.50;100.00
50226;BME280;36113;50.742;6.432;2023-04-02T13:26:49;112741.81;;;-145.50;100.00
50226;BME280;36113;50.742;6.432;2023-04-02T13:29:25;112741.81;;;-145.50;100.00
50226;BME280;36113;50.742;6.432;2023-04-02T13:31:53;112741.81;;;-145.50;100.00
50226;BME280;36113;50.742;6.432;2023-04-02T13:37:01;112741.81;;;-145.50;100.00
50226;BME280;36113;50.742;6.432;2023-04-02T13:39:26;112741.81;;;-145.50;100.00
50226;BME280;36113;50.742;6.432;2023-04-02T13:41:59;112741.81;;;-145.50;100.00
50226;BME280;36113;50.742;6.432;2023-04-02T13:44:30;112741.81;;;-145.50;100.00
50226;BME280;36113;50.742;6.432;2023-04-02T13:46:56;112741.81;;;-145.50;100.00
50226;BME280;36113;50.742;6.432;2023-04-02T13:49:23;112741.81;;;-145.50;100.00
50226;BME280;36113;50.742;6.432;2023-04-02T13:51:50;112741.81;;;-145.50;100.00
50226;BME280;36113;50.742;6.432;2023-04-02T13:54:23;112741.81;;;-145.50;100.00
50226;BME280;36113;50.742;6.432;2023-04-02T13:56:50;112741.81;;;-145.50;100.00
50226;BME280;36113;50.742;6.432;2023-04-02T13:59:16;112741.81;;;-145.50;100.00
50226;BME280;36113;50.742;6.432;2023-04-02T14:01:43;112741.81;;;-145.50;100.00
50226;BME280;36113;50.742;6.432;2023-04-02T14:04:09;112741.81;;;-145.50;100.00
50226;BME280;36113;50.742;6.432;2023-04-02T14:15:35;112741.81;;;-145.50;99.80
50226;BME280;36113;50.742;6.432;2023-04-02T14:18:24;112741.81;;;-145.50;100.00
50226;BME280;36113;50.742;6.432;2023-04-02T14:23:24;112741.81;;;-145.50;100.00
50226;BME280;36113;50.742;6.432;2023-04-02T14:31:29;112741.81;;;-145.50;100.00
50226;BME280;36113;50.742;6.432;2023-04-02T14:39:54;112741.81;;;-145.50;99.78
50226;BME280;36113;50.742;6.432;2023-04-02T14:42:38;112741.81;;;-145.50;100.00
50226;BME280;36113;50.742;6.432;2023-04-02T14:45:11;112741.81;;;-145.50;99.95
50226;BME280;36113;50.742;6.432;2023-04-02T14:47:46;112741.81;;;-145.50;99.33
50226;BME280;36113;50.742;6.432;2023-04-02T14:50:25;112741.81;;;-145.50;98.09
50226;BME280;36113;50.742;6.432;2023-04-02T14:52:56;112741.81;;;-145.50;97.35
50226;BME280;36113;50.742;6.432;2023-04-02T14:55:35;112741.81;;;-145.50;97.49
50226;BME280;36113;50.742;6.432;2023-04-02T14:58:04;112741.81;;;-145.50;97.79
50226;BME280;36113;50.742;6.432;2023-04-02T15:00:34;112741.81;;;-145.50;97.15
50226;BME280;36113;50.742;6.432;2023-04-02T15:03:08;112741.81;;;-145.50;96.89
50226;BME280;36113;50.742;6.432;2023-04-02T15:05:42;112741.81;;;-145.50;96.97
50226;BME280;36113;50.742;6.432;2023-04-02T15:11:05;112741.81;;;-145.50;96.85
50226;BME280;36113;50.742;6.432;2023-04-02T15:13:56;112741.81;;;-145.50;97.01
50226;BME280;36113;50.742;6.432;2023-04-02T15:16:25;112741.81;;;-145.50;96.83
50226;BME280;36113;50.742;6.432;2023-04-02T15:18:52;112741.81;;;-145.50;97.13